sensor_id;sensor_type;location;lat;lon;timestamp;P1;durP1;ratioP1;P2;durP2;ratioP2
24159;SDS011;62385;41.594;23.808;2023-11-19T00:00:18;0.20;;;0.10;;
24159;SDS011;62385;41.594;23.808;2023-11-19T00:02:44;0.20;;;0.00;;
24159;SDS011;62385;41.594;23.808;2023-11-19T00:05:09;0.50;;;0.20;;
24159;SDS011;62385;41.594;23.808;2023-11-19T00:07:39;1.13;;;0.37;;
24159;SDS011;62385;41.594;23.808;2023-11-19T00:10:11;0.20;;;0.10;;
24159;SDS011;62385;41.594;23.808;2023-11-19T00:12:39;0.37;;;0.17;;
24159;SDS011;62385;41.594;23.808;2023-11-19T00:15:06;0.20;;;0.10;;
24159;SDS011;62385;41.594;23.808;2023-11-19T00:17:40;2.03;;;0.73;;
24159;SDS011;62385;41.594;23.808;2023-11-19T00:20:12;0.20;;;0.00;;
24159;SDS011;62385;41.594;23.808;2023-11-19T00:22:42;0.20;;;0.10;;
24159;SDS011;62385;41.594;23.808;2023-11-19T00:25:08;0.20;;;0.10;;
24159;SDS011;62385;41.594;23.808;2023-11-19T00:27:35;0.70;;;0.47;;
24159;SDS011;62385;41.594;23.808;2023-11-19T00:30:01;0.30;;;0.13;;
24159;SDS011;62385;41.594;23.808;2023-11-19T00:32:27;0.20;;;0.00;;
24159;SDS011;62385;41.594;23.808;2023-11-19T00:34:53;0.57;;;0.23;;
24159;SDS011;62385;41.594;23.808;2023-11-19T00:37:18;0.20;;;0.10;;
24159;SDS011;62385;41.594;23.808;2023-11-19T00:39:44;0.90;;;0.70;;
24159;SDS011;62385;41.594;23.808;2023-11-19T00:42:11;0.53;;;0.43;;
24159;SDS011;62385;41.594;23.808;2023-11-19T00:44:37;1.07;;;0.20;;
24159;SDS011;62385;41.594;23.808;2023-11-19T00:47:03;0.20;;;0.00;;
24159;SDS011;62385;41.594;23.808;2023-11-19T00:49:30;0.40;;;0.30;;
24159;SDS011;62385;41.594;23.808;2023-11-19T00:52:00;1.57;;;0.20;;
24159;SDS011;62385;41.594;23.808;2023-11-19T00:54:27;0.33;;;0.23;;
24159;SDS011;62385;41.594;23.808;2023-11-19T00:56:53;0.50;;;0.33;;
24159;SDS011;62385;41.594;23.808;2023-11-19T00:59:18;1.30;;;0.23;;
24159;SDS011;62385;41.594;23.808;2023-11-19T01:01:44;0.20;;;0.00;;
24159;SDS011;62385;41.594;23.808;2023-11-19T01:04:10;0.70;;;0.40;;
24159;SDS011;62385;41.594;23.808;2023-11-19T01:06:36;1.63;;;0.30;;
24159;SDS011;62385;41.594;23.808;2023-11-19T01:09:02;0.20;;;0.20;;
24159;SDS011;62385;41.594;23.808;2023-11-19T01:11:27;1.03;;;0.60;;
24159;SDS011;62385;41.594;23.808;2023-11-19T01:13:53;0.53;;;0.53;;
24159;SDS011;62385;41.594;23.808;2023-11-19T01:16:19;0.57;;;0.50;;
24159;SDS011;62385;41.594;23.808;2023-11-19T01:18:47;0.30;;;0.20;;
24159;SDS011;62385;41.594;23.808;2023-11-19T01:21:13;0.30;;;0.10;;
24159;SDS011;62385;41.594;23.808;2023-11-19T01:23:43;6.03;;;0.50;;
24159;SDS011;62385;41.594;23.808;2023-11-19T01:26:09;1.53;;;0.60;;
24159;SDS011;62385;41.594;23.808;2023-11-19T01:32:25;0.20;;;0.10;;
24159;SDS011;62385;41.594;23.808;2023-11-19T01:34:51;1.70;;;0.50;;
24159;SDS011;62385;41.594;23.808;2023-11-19T01:37:17;0.20;;;0.00;;
24159;SDS011;62385;41.594;23.808;2023-11-19T01:40:12;0.20;;;0.10;;
24159;SDS011;62385;41.594;23.808;2023-11-19T01:43:12;0.30;;;0.30;;
24159;SDS011;62385;41.594;23.808;2023-11-19T01:46:28;2.20;;;0.67;;
24159;SDS011;62385;41.594;23.808;2023-11-19T01:49:31;0.20;;;0.10;;
24159;SDS011;62385;41.594;23.808;2023-11-19T01:51:58;1.90;;;0.30;;
24159;SDS011;62385;41.594;23.808;2023-11-19T01:54:24;0.20;;;0.10;;
24159;SDS011;62385;41.594;23.808;2023-11-19T01:56:50;0.20;;;0.20;;
24159;SDS011;62385;41.594;23.808;2023-11-19T01:59:23;0.50;;;0.10;;
24159;SDS011;62385;41.594;23.808;2023-11-19T02:01:53;0.83;;;0.30;;
24159;SDS011;62385;41.594;23.808;2023-11-19T02:04:20;0.27;;;0.20;;
24159;SDS011;62385;41.594;23.808;2023-11-19T02:06:47;0.20;;;0.10;;
24159;SDS011;62385;41.594;23.808;2023-11-19T02:09:14;3.60;;;0.70;;
24159;SDS011;62385;41.594;23.808;2023-11-19T02:11:45;1.37;;;0.40;;
24159;SDS011;62385;41.594;23.808;2023-11-19T02:14:14;0.37;;;0.37;;
24159;SDS011;62385;41.594;23.808;2023-11-19T02:16:40;0.40;;;0.37;;
24159;SDS011;62385;41.594;23.808;2023-11-19T02:19:06;0.43;;;0.27;;
24159;SDS011;62385;41.594;23.808;2023-11-19T02:21:33;0.23;;;0.10;;
24159;SDS011;62385;41.594;23.808;2023-11-19T02:23:59;0.47;;;0.30;;
24159;SDS011;62385;41.594;23.808;2023-11-19T02:26:28;0.20;;;0.20;;
24159;SDS011;62385;41.594;23.808;2023-11-19T02:28:58;1.30;;;1.20;;
24159;SDS011;62385;41.594;23.808;2023-11-19T02:31:24;0.37;;;0.33;;
24159;SDS011;62385;41.594;23.808;2023-11-19T02:33:50;0.30;;;0.30;;
24159;SDS011;62385;41.594;23.808;2023-11-19T02:36:15;0.40;;;0.30;;
24159;SDS011;62385;41.594;23.808;2023-11-19T02:38:42;0.40;;;0.23;;
24159;SDS011;62385;41.594;23.808;2023-11-19T02:41:07;0.70;;;0.70;;
24159;SDS011;62385;41.594;23.808;2023-11-19T02:43:36;0.20;;;0.20;;
24159;SDS011;62385;41.594;23.808;2023-11-19T02:46:03;0.57;;;0.33;;
24159;SDS011;62385;41.594;23.808;2023-11-19T02:48:34;0.30;;;0.20;;
24159;SDS011;62385;41.594;23.808;2023-11-19T02:51:01;1.27;;;0.70;;
24159;SDS011;62385;41.594;23.808;2023-11-19T02:53:31;0.80;;;0.60;;
24159;SDS011;62385;41.594;23.808;2023-11-19T02:55:57;0.93;;;0.50;;
24159;SDS011;62385;41.594;23.808;2023-11-19T02:58:31;1.07;;;0.50;;
24159;SDS011;62385;41.594;23.808;2023-11-19T03:00:57;0.30;;;0.20;;
24159;SDS011;62385;41.594;23.808;2023-11-19T03:03:24;0.20;;;0.10;;
24159;SDS011;62385;41.594;23.808;2023-11-19T03:06:03;0.20;;;0.00;;
24159;SDS011;62385;41.594;23.808;2023-11-19T03:08:36;0.87;;;0.30;;
24159;SDS011;62385;41.594;23.808;2023-11-19T03:11:02;0.20;;;0.20;;
24159;SDS011;62385;41.594;23.808;2023-11-19T03:13:30;0.67;;;0.40;;
24159;SDS011;62385;41.594;23.808;2023-11-19T03:15:55;1.20;;;0.57;;
24159;SDS011;62385;41.594;23.808;2023-11-19T03:18:21;2.70;;;0.53;;
24159;SDS011;62385;41.594;23.808;2023-11-19T03:20:47;0.20;;;0.10;;
24159;SDS011;62385;41.594;23.808;2023-11-19T03:23:13;0.47;;;0.43;;
24159;SDS011;62385;41.594;23.808;2023-11-19T03:25:39;0.20;;;0.10;;
24159;SDS011;62385;41.594;23.808;2023-11-19T03:34:43;0.20;;;0.10;;
24159;SDS011;62385;41.594;23.808;2023-11-19T03:37:09;0.30;;;0.20;;
24159;SDS011;62385;41.594;23.808;2023-11-19T03:39:35;4.67;;;2.87;;
24159;SDS011;62385;41.594;23.808;2023-11-19T03:42:01;2.20;;;2.00;;
24159;SDS011;62385;41.594;23.808;2023-11-19T03:44:27;1.07;;;0.70;;
24159;SDS011;62385;41.594;23.808;2023-11-19T03:46:53;0.40;;;0.40;;
24159;SDS011;62385;41.594;23.808;2023-11-19T03:57:41;0.93;;;0.43;;
24159;SDS011;62385;41.594;23.808;2023-11-19T04:00:07;0.20;;;0.10;;
24159;SDS011;62385;41.594;23.808;2023-11-19T04:02:38;0.40;;;0.30;;
24159;SDS011;62385;41.594;23.808;2023-11-19T04:05:03;0.30;;;0.20;;
24159;SDS011;62385;41.594;23.808;2023-11-19T04:07:30;1.80;;;1.07;;
24159;SDS011;62385;41.594;23.808;2023-11-19T04:09:56;0.20;;;0.20;;
24159;SDS011;62385;41.594;23.808;2023-11-19T04:12:22;1.60;;;1.03;;
24159;SDS011;62385;41.594;23.808;2023-11-19T04:14:48;1.30;;;1.20;;
24159;SDS011;62385;41.594;23.808;2023-11-19T04:17:13;3.40;;;0.60;;
24159;SDS011;62385;41.594;23.808;2023-11-19T04:19:39;2.80;;;2.40;;
24159;SDS011;62385;41.594;23.808;2023-11-19T04:22:07;1.37;;;1.27;;
24159;SDS011;62385;41.594;23.808;2023-11-19T04:24:34;0.60;;;0.60;;
24159;SDS011;62385;41.594;23.808;2023-11-19T04:27:00;1.13;;;1.00;;
24159;SDS011;62385;41.594;23.808;2023-11-19T04:29:25;1.90;;;1.00;;
24159;SDS011;62385;41.594;23.808;2023-11-19T04:31:52;2.43;;;0.77;;
24159;SDS011;62385;41.594;23.808;2023-11-19T04:34:18;1.20;;;0.83;;
24159;SDS011;62385;41.594;23.808;2023-11-19T04:36:50;1.07;;;0.60;;
24159;SDS011;62385;41.594;23.808;2023-11-19T04:39:16;0.57;;;0.47;;
24159;SDS011;62385;41.594;23.808;2023-11-19T04:41:46;2.37;;;1.37;;
24159;SDS011;62385;41.594;23.808;2023-11-19T04:44:14;5.63;;;3.73;;
24159;SDS011;62385;41.594;23.808;2023-11-19T04:46:41;1.13;;;1.00;;
24159;SDS011;62385;41.594;23.808;2023-11-19T04:49:09;1.03;;;0.60;;
24159;SDS011;62385;41.594;23.808;2023-11-19T04:51:38;1.17;;;0.90;;
24159;SDS011;62385;41.594;23.808;2023-11-19T04:54:10;4.30;;;2.10;;
24159;SDS011;62385;41.594;23.808;2023-11-19T05:03:44;0.40;;;0.40;;
24159;SDS011;62385;41.594;23.808;2023-11-19T05:22:32;5.50;;;1.83;;
24159;SDS011;62385;41.594;23.808;2023-11-19T05:29:12;2.03;;;1.93;;
24159;SDS011;62385;41.594;23.808;2023-11-19T05:34:52;5.07;;;2.23;;
24159;SDS011;62385;41.594;23.808;2023-11-19T05:37:21;4.77;;;3.03;;
24159;SDS011;62385;41.594;23.808;2023-11-19T05:39:51;9.87;;;5.10;;
24159;SDS011;62385;41.594;23.808;2023-11-19T05:49:15;2.37;;;1.60;;
24159;SDS011;62385;41.594;23.808;2023-11-19T05:51:41;1.73;;;1.63;;
24159;SDS011;62385;41.594;23.808;2023-11-19T05:54:12;4.00;;;2.93;;
24159;SDS011;62385;41.594;23.808;2023-11-19T05:56:38;2.70;;;1.80;;
24159;SDS011;62385;41.594;23.808;2023-11-19T05:59:04;3.80;;;2.43;;
24159;SDS011;62385;41.594;23.808;2023-11-19T06:01:35;1.37;;;1.27;;
24159;SDS011;62385;41.594;23.808;2023-11-19T06:04:01;2.50;;;1.80;;
24159;SDS011;62385;41.594;23.808;2023-11-19T06:06:28;1.53;;;1.40;;
24159;SDS011;62385;41.594;23.808;2023-11-19T06:08:54;8.70;;;4.53;;
24159;SDS011;62385;41.594;23.808;2023-11-19T06:11:20;3.23;;;2.90;;
24159;SDS011;62385;41.594;23.808;2023-11-19T06:13:46;3.67;;;2.03;;
24159;SDS011;62385;41.594;23.808;2023-11-19T06:16:16;4.87;;;4.37;;
24159;SDS011;62385;41.594;23.808;2023-11-19T06:18:41;7.63;;;2.30;;
24159;SDS011;62385;41.594;23.808;2023-11-19T06:21:09;2.60;;;1.43;;
24159;SDS011;62385;41.594;23.808;2023-11-19T06:23:35;2.50;;;1.17;;
24159;SDS011;62385;41.594;23.808;2023-11-19T06:26:00;3.03;;;1.33;;
24159;SDS011;62385;41.594;23.808;2023-11-19T06:28:26;0.40;;;0.40;;
24159;SDS011;62385;41.594;23.808;2023-11-19T06:30:52;1.23;;;1.07;;
24159;SDS011;62385;41.594;23.808;2023-11-19T06:33:17;19.40;;;9.50;;
24159;SDS011;62385;41.594;23.808;2023-11-19T06:35:43;13.37;;;4.10;;
24159;SDS011;62385;41.594;23.808;2023-11-19T06:38:09;1.30;;;0.97;;
24159;SDS011;62385;41.594;23.808;2023-11-19T06:40:35;8.70;;;4.23;;
24159;SDS011;62385;41.594;23.808;2023-11-19T06:43:01;11.10;;;2.90;;
24159;SDS011;62385;41.594;23.808;2023-11-19T06:45:28;2.77;;;2.57;;
24159;SDS011;62385;41.594;23.808;2023-11-19T06:48:04;6.27;;;2.93;;
24159;SDS011;62385;41.594;23.808;2023-11-19T06:50:30;3.63;;;3.03;;
24159;SDS011;62385;41.594;23.808;2023-11-19T06:52:57;7.17;;;4.37;;
24159;SDS011;62385;41.594;23.808;2023-11-19T06:55:23;1.40;;;0.70;;
24159;SDS011;62385;41.594;23.808;2023-11-19T06:57:49;0.60;;;0.60;;
24159;SDS011;62385;41.594;23.808;2023-11-19T07:00:18;0.73;;;0.60;;
24159;SDS011;62385;41.594;23.808;2023-11-19T07:02:47;0.20;;;0.07;;
24159;SDS011;62385;41.594;23.808;2023-11-19T07:05:13;0.30;;;0.20;;
24159;SDS011;62385;41.594;23.808;2023-11-19T07:10:52;0.57;;;0.30;;
24159;SDS011;62385;41.594;23.808;2023-11-19T07:17:21;0.20;;;0.20;;
24159;SDS011;62385;41.594;23.808;2023-11-19T07:19:49;0.20;;;0.13;;
24159;SDS011;62385;41.594;23.808;2023-11-19T07:22:15;0.60;;;0.40;;
24159;SDS011;62385;41.594;23.808;2023-11-19T07:24:41;1.50;;;0.30;;
24159;SDS011;62385;41.594;23.808;2023-11-19T07:27:10;0.50;;;0.50;;
24159;SDS011;62385;41.594;23.808;2023-11-19T07:29:35;0.30;;;0.20;;
24159;SDS011;62385;41.594;23.808;2023-11-19T07:35:57;0.20;;;0.20;;
24159;SDS011;62385;41.594;23.808;2023-11-19T07:38:26;0.73;;;0.73;;
24159;SDS011;62385;41.594;23.808;2023-11-19T07:40:52;0.30;;;0.30;;
24159;SDS011;62385;41.594;23.808;2023-11-19T07:43:18;0.33;;;0.33;;
24159;SDS011;62385;41.594;23.808;2023-11-19T07:45:43;0.30;;;0.30;;
24159;SDS011;62385;41.594;23.808;2023-11-19T07:48:10;0.27;;;0.20;;
24159;SDS011;62385;41.594;23.808;2023-11-19T07:50:38;0.20;;;0.20;;
24159;SDS011;62385;41.594;23.808;2023-11-19T07:53:06;0.80;;;0.73;;
24159;SDS011;62385;41.594;23.808;2023-11-19T07:55:45;0.73;;;0.40;;
24159;SDS011;62385;41.594;23.808;2023-11-19T08:02:36;0.20;;;0.10;;
24159;SDS011;62385;41.594;23.808;2023-11-19T08:13:23;0.70;;;0.50;;
24159;SDS011;62385;41.594;23.808;2023-11-19T08:15:57;0.60;;;0.27;;
24159;SDS011;62385;41.594;23.808;2023-11-19T08:21:51;0.40;;;0.20;;
24159;SDS011;62385;41.594;23.808;2023-11-19T08:24:23;2.37;;;1.90;;
24159;SDS011;62385;41.594;23.808;2023-11-19T08:46:26;1.00;;;0.53;;
24159;SDS011;62385;41.594;23.808;2023-11-19T08:48:57;0.60;;;0.37;;
24159;SDS011;62385;41.594;23.808;2023-11-19T08:56:28;0.20;;;0.20;;
24159;SDS011;62385;41.594;23.808;2023-11-19T08:58:58;0.80;;;0.60;;
24159;SDS011;62385;41.594;23.808;2023-11-19T09:01:23;0.67;;;0.43;;
24159;SDS011;62385;41.594;23.808;2023-11-19T09:03:50;0.43;;;0.43;;
24159;SDS011;62385;41.594;23.808;2023-11-19T09:06:15;0.40;;;0.30;;
24159;SDS011;62385;41.594;23.808;2023-11-19T09:08:44;0.80;;;0.73;;
24159;SDS011;62385;41.594;23.808;2023-11-19T09:11:10;0.93;;;0.47;;
24159;SDS011;62385;41.594;23.808;2023-11-19T09:13:37;1.40;;;0.90;;
24159;SDS011;62385;41.594;23.808;2023-11-19T09:16:02;0.40;;;0.20;;
24159;SDS011;62385;41.594;23.808;2023-11-19T09:18:32;0.30;;;0.20;;
24159;SDS011;62385;41.594;23.808;2023-11-19T09:20:57;0.80;;;0.27;;
24159;SDS011;62385;41.594;23.808;2023-11-19T09:23:23;0.57;;;0.47;;
24159;SDS011;62385;41.594;23.808;2023-11-19T09:25:54;0.40;;;0.33;;
24159;SDS011;62385;41.594;23.808;2023-11-19T09:28:20;1.50;;;0.43;;
24159;SDS011;62385;41.594;23.808;2023-11-19T09:30:45;0.90;;;0.63;;
24159;SDS011;62385;41.594;23.808;2023-11-19T09:33:11;1.27;;;0.47;;
24159;SDS011;62385;41.594;23.808;2023-11-19T09:35:37;0.93;;;0.90;;
24159;SDS011;62385;41.594;23.808;2023-11-19T09:38:11;1.50;;;0.57;;
24159;SDS011;62385;41.594;23.808;2023-11-19T09:40:37;1.07;;;0.80;;
24159;SDS011;62385;41.594;23.808;2023-11-19T09:43:04;0.40;;;0.40;;
24159;SDS011;62385;41.594;23.808;2023-11-19T09:45:29;0.97;;;0.87;;
24159;SDS011;62385;41.594;23.808;2023-11-19T09:48:01;0.50;;;0.43;;
24159;SDS011;62385;41.594;23.808;2023-11-19T09:50:27;0.80;;;0.70;;
24159;SDS011;62385;41.594;23.808;2023-11-19T09:52:54;2.13;;;0.50;;
24159;SDS011;62385;41.594;23.808;2023-11-19T09:55:20;1.20;;;0.57;;
24159;SDS011;62385;41.594;23.808;2023-11-19T09:57:45;0.83;;;0.73;;
24159;SDS011;62385;41.594;23.808;2023-11-19T10:00:13;0.60;;;0.37;;
24159;SDS011;62385;41.594;23.808;2023-11-19T10:02:40;2.57;;;0.63;;
24159;SDS011;62385;41.594;23.808;2023-11-19T10:05:07;0.90;;;0.63;;
24159;SDS011;62385;41.594;23.808;2023-11-19T10:07:33;0.80;;;0.47;;
24159;SDS011;62385;41.594;23.808;2023-11-19T10:09:59;0.40;;;0.40;;
24159;SDS011;62385;41.594;23.808;2023-11-19T10:12:27;1.00;;;0.73;;
24159;SDS011;62385;41.594;23.808;2023-11-19T10:14:59;0.90;;;0.90;;
24159;SDS011;62385;41.594;23.808;2023-11-19T10:18:06;0.30;;;0.30;;
24159;SDS011;62385;41.594;23.808;2023-11-19T10:21:39;0.47;;;0.40;;
24159;SDS011;62385;41.594;23.808;2023-11-19T11:12:32;0.33;;;0.30;;
24159;SDS011;62385;41.594;23.808;2023-11-19T11:15:11;0.63;;;0.40;;
24159;SDS011;62385;41.594;23.808;2023-11-19T11:17:40;1.80;;;0.53;;
24159;SDS011;62385;41.594;23.808;2023-11-19T11:20:08;0.77;;;0.43;;
24159;SDS011;62385;41.594;23.808;2023-11-19T11:22:38;1.27;;;0.60;;
24159;SDS011;62385;41.594;23.808;2023-11-19T11:33:06;0.40;;;0.30;;
24159;SDS011;62385;41.594;23.808;2023-11-19T11:35:49;0.47;;;0.30;;
24159;SDS011;62385;41.594;23.808;2023-11-19T11:38:21;1.33;;;0.70;;
24159;SDS011;62385;41.594;23.808;2023-11-19T11:43:50;0.30;;;0.20;;
24159;SDS011;62385;41.594;23.808;2023-11-19T11:46:53;0.77;;;0.60;;
24159;SDS011;62385;41.594;23.808;2023-11-19T11:49:06;0.68;;;0.40;;
24159;SDS011;62385;41.594;23.808;2023-11-19T11:52:06;0.30;;;0.20;;
24159;SDS011;62385;41.594;23.808;2023-11-19T11:54:26;0.20;;;0.20;;
24159;SDS011;62385;41.594;23.808;2023-11-19T11:57:10;0.47;;;0.47;;
24159;SDS011;62385;41.594;23.808;2023-11-19T12:02:05;2.92;;;0.70;;
24159;SDS011;62385;41.594;23.808;2023-11-19T12:04:34;1.08;;;0.85;;
24159;SDS011;62385;41.594;23.808;2023-11-19T12:07:08;0.90;;;0.57;;
24159;SDS011;62385;41.594;23.808;2023-11-19T12:10:26;0.30;;;0.20;;
24159;SDS011;62385;41.594;23.808;2023-11-19T12:12:34;0.40;;;0.20;;
24159;SDS011;62385;41.594;23.808;2023-11-19T12:15:07;1.13;;;0.85;;
24159;SDS011;62385;41.594;23.808;2023-11-19T12:17:36;1.33;;;0.60;;
24159;SDS011;62385;41.594;23.808;2023-11-19T12:20:08;0.25;;;0.25;;
24159;SDS011;62385;41.594;23.808;2023-11-19T12:22:37;0.40;;;0.30;;
24159;SDS011;62385;41.594;23.808;2023-11-19T12:25:06;2.03;;;0.70;;
24159;SDS011;62385;41.594;23.808;2023-11-19T12:27:34;0.82;;;0.50;;
24159;SDS011;62385;41.594;23.808;2023-11-19T12:30:01;1.75;;;0.20;;
24159;SDS011;62385;41.594;23.808;2023-11-19T12:32:42;0.57;;;0.57;;
24159;SDS011;62385;41.594;23.808;2023-11-19T12:35:09;0.20;;;0.10;;
24159;SDS011;62385;41.594;23.808;2023-11-19T12:37:48;0.43;;;0.40;;
24159;SDS011;62385;41.594;23.808;2023-11-19T12:42:51;2.83;;;0.98;;
24159;SDS011;62385;41.594;23.808;2023-11-19T12:45:18;2.35;;;1.65;;
24159;SDS011;62385;41.594;23.808;2023-11-19T12:47:46;4.28;;;1.17;;
24159;SDS011;62385;41.594;23.808;2023-11-19T12:50:13;0.80;;;0.80;;
24159;SDS011;62385;41.594;23.808;2023-11-19T12:52:39;1.35;;;0.43;;
24159;SDS011;62385;41.594;23.808;2023-11-19T12:55:06;0.45;;;0.45;;
24159;SDS011;62385;41.594;23.808;2023-11-19T12:57:58;0.85;;;0.50;;
24159;SDS011;62385;41.594;23.808;2023-11-19T13:00:25;1.02;;;0.88;;
24159;SDS011;62385;41.594;23.808;2023-11-19T13:02:59;0.50;;;0.35;;
24159;SDS011;62385;41.594;23.808;2023-11-19T13:05:27;0.40;;;0.20;;
24159;SDS011;62385;41.594;23.808;2023-11-19T13:08:05;0.30;;;0.20;;
24159;SDS011;62385;41.594;23.808;2023-11-19T13:10:33;1.05;;;0.80;;
24159;SDS011;62385;41.594;23.808;2023-11-19T13:13:19;0.70;;;0.63;;
24159;SDS011;62385;41.594;23.808;2023-11-19T13:15:45;1.92;;;0.95;;
24159;SDS011;62385;41.594;23.808;2023-11-19T13:18:12;1.10;;;0.63;;
24159;SDS011;62385;41.594;23.808;2023-11-19T13:20:38;0.65;;;0.40;;
24159;SDS011;62385;41.594;23.808;2023-11-19T13:23:04;0.25;;;0.15;;
24159;SDS011;62385;41.594;23.808;2023-11-19T13:25:32;4.25;;;0.68;;
24159;SDS011;62385;41.594;23.808;2023-11-19T13:27:58;0.85;;;0.50;;
24159;SDS011;62385;41.594;23.808;2023-11-19T13:30:25;0.63;;;0.52;;
24159;SDS011;62385;41.594;23.808;2023-11-19T13:32:51;0.68;;;0.50;;
24159;SDS011;62385;41.594;23.808;2023-11-19T13:35:18;0.50;;;0.50;;
24159;SDS011;62385;41.594;23.808;2023-11-19T13:37:44;1.33;;;0.50;;
24159;SDS011;62385;41.594;23.808;2023-11-19T13:40:12;0.50;;;0.50;;
24159;SDS011;62385;41.594;23.808;2023-11-19T13:42:44;0.38;;;0.38;;
24159;SDS011;62385;41.594;23.808;2023-11-19T13:45:14;4.30;;;0.80;;
24159;SDS011;62385;41.594;23.808;2023-11-19T13:47:40;0.90;;;0.65;;
24159;SDS011;62385;41.594;23.808;2023-11-19T13:50:08;1.50;;;0.60;;
24159;SDS011;62385;41.594;23.808;2023-11-19T13:52:39;2.10;;;1.03;;
24159;SDS011;62385;41.594;23.808;2023-11-19T13:55:07;2.45;;;1.63;;
24159;SDS011;62385;41.594;23.808;2023-11-19T13:57:37;2.15;;;1.40;;
24159;SDS011;62385;41.594;23.808;2023-11-19T14:00:07;6.50;;;1.92;;
24159;SDS011;62385;41.594;23.808;2023-11-19T14:02:47;6.20;;;3.03;;
24159;SDS011;62385;41.594;23.808;2023-11-19T14:05:13;5.03;;;4.10;;
24159;SDS011;62385;41.594;23.808;2023-11-19T14:07:40;3.95;;;2.72;;
24159;SDS011;62385;41.594;23.808;2023-11-19T14:10:07;5.13;;;2.35;;
24159;SDS011;62385;41.594;23.808;2023-11-19T14:12:39;1.48;;;1.13;;
24159;SDS011;62385;41.594;23.808;2023-11-19T14:15:05;1.27;;;1.17;;
24159;SDS011;62385;41.594;23.808;2023-11-19T14:17:32;1.50;;;1.05;;
24159;SDS011;62385;41.594;23.808;2023-11-19T14:20:01;0.43;;;0.43;;
24159;SDS011;62385;41.594;23.808;2023-11-19T14:23:03;2.47;;;0.90;;
24159;SDS011;62385;41.594;23.808;2023-11-19T14:45:38;2.90;;;2.63;;
24159;SDS011;62385;41.594;23.808;2023-11-19T15:11:22;16.67;;;8.53;;
24159;SDS011;62385;41.594;23.808;2023-11-19T15:14:45;8.43;;;5.17;;
24159;SDS011;62385;41.594;23.808;2023-11-19T15:17:11;9.80;;;5.87;;
24159;SDS011;62385;41.594;23.808;2023-11-19T15:19:37;9.07;;;6.30;;
24159;SDS011;62385;41.594;23.808;2023-11-19T15:22:03;6.83;;;5.03;;
24159;SDS011;62385;41.594;23.808;2023-11-19T15:24:31;4.30;;;3.13;;
24159;SDS011;62385;41.594;23.808;2023-11-19T15:26:56;7.67;;;4.50;;
24159;SDS011;62385;41.594;23.808;2023-11-19T15:29:22;11.07;;;6.30;;
24159;SDS011;62385;41.594;23.808;2023-11-19T15:31:48;4.77;;;2.00;;
24159;SDS011;62385;41.594;23.808;2023-11-19T15:34:14;14.60;;;6.33;;
24159;SDS011;62385;41.594;23.808;2023-11-19T15:44:17;4.83;;;3.77;;
24159;SDS011;62385;41.594;23.808;2023-11-19T15:46:43;4.70;;;3.73;;
24159;SDS011;62385;41.594;23.808;2023-11-19T15:52:38;2.10;;;1.17;;
24159;SDS011;62385;41.594;23.808;2023-11-19T15:55:04;14.00;;;2.03;;
24159;SDS011;62385;41.594;23.808;2023-11-19T16:02:23;3.30;;;1.47;;
24159;SDS011;62385;41.594;23.808;2023-11-19T16:04:52;1.87;;;1.07;;
24159;SDS011;62385;41.594;23.808;2023-11-19T16:07:21;4.70;;;2.30;;
24159;SDS011;62385;41.594;23.808;2023-11-19T16:09:47;2.17;;;1.87;;
24159;SDS011;62385;41.594;23.808;2023-11-19T16:12:13;4.87;;;3.40;;
24159;SDS011;62385;41.594;23.808;2023-11-19T16:14:39;2.30;;;2.03;;
24159;SDS011;62385;41.594;23.808;2023-11-19T16:17:06;7.60;;;3.10;;
24159;SDS011;62385;41.594;23.808;2023-11-19T16:19:32;7.07;;;2.80;;
24159;SDS011;62385;41.594;23.808;2023-11-19T16:21:59;6.60;;;3.17;;
24159;SDS011;62385;41.594;23.808;2023-11-19T16:24:37;4.03;;;2.87;;
24159;SDS011;62385;41.594;23.808;2023-11-19T16:27:03;9.90;;;4.27;;
24159;SDS011;62385;41.594;23.808;2023-11-19T16:29:29;12.07;;;4.73;;
24159;SDS011;62385;41.594;23.808;2023-11-19T16:31:55;4.10;;;3.27;;
24159;SDS011;62385;41.594;23.808;2023-11-19T16:34:20;8.00;;;6.07;;
24159;SDS011;62385;41.594;23.808;2023-11-19T16:36:53;8.80;;;4.57;;
24159;SDS011;62385;41.594;23.808;2023-11-19T16:39:28;14.73;;;7.80;;
24159;SDS011;62385;41.594;23.808;2023-11-19T16:41:57;16.70;;;8.20;;
24159;SDS011;62385;41.594;23.808;2023-11-19T16:44:32;15.23;;;7.80;;
24159;SDS011;62385;41.594;23.808;2023-11-19T16:48:10;6.03;;;4.70;;
24159;SDS011;62385;41.594;23.808;2023-11-19T16:51:25;4.93;;;4.03;;
24159;SDS011;62385;41.594;23.808;2023-11-19T16:53:53;9.27;;;3.70;;
24159;SDS011;62385;41.594;23.808;2023-11-19T16:56:19;7.73;;;3.23;;
24159;SDS011;62385;41.594;23.808;2023-11-19T16:58:45;12.43;;;6.13;;
24159;SDS011;62385;41.594;23.808;2023-11-19T17:01:11;21.40;;;7.30;;
24159;SDS011;62385;41.594;23.808;2023-11-19T17:03:41;12.93;;;7.67;;
24159;SDS011;62385;41.594;23.808;2023-11-19T17:09:22;3.90;;;3.47;;
24159;SDS011;62385;41.594;23.808;2023-11-19T17:12:50;3.23;;;2.43;;
24159;SDS011;62385;41.594;23.808;2023-11-19T17:23:03;6.97;;;4.23;;
24159;SDS011;62385;41.594;23.808;2023-11-19T17:25:30;5.03;;;3.07;;
24159;SDS011;62385;41.594;23.808;2023-11-19T17:31:06;8.30;;;4.07;;
24159;SDS011;62385;41.594;23.808;2023-11-19T17:33:32;11.90;;;4.93;;
24159;SDS011;62385;41.594;23.808;2023-11-19T17:35:58;7.10;;;3.13;;
24159;SDS011;62385;41.594;23.808;2023-11-19T17:38:26;7.63;;;3.87;;
24159;SDS011;62385;41.594;23.808;2023-11-19T17:40:53;8.23;;;4.40;;
24159;SDS011;62385;41.594;23.808;2023-11-19T17:43:22;11.57;;;5.70;;
24159;SDS011;62385;41.594;23.808;2023-11-19T17:45:49;9.23;;;6.27;;
24159;SDS011;62385;41.594;23.808;2023-11-19T17:48:15;8.63;;;4.17;;
24159;SDS011;62385;41.594;23.808;2023-11-19T17:50:41;5.97;;;4.40;;
24159;SDS011;62385;41.594;23.808;2023-11-19T17:53:07;12.43;;;4.53;;
24159;SDS011;62385;41.594;23.808;2023-11-19T17:55:33;6.20;;;4.13;;
24159;SDS011;62385;41.594;23.808;2023-11-19T17:57:59;12.20;;;4.97;;
24159;SDS011;62385;41.594;23.808;2023-11-19T18:00:25;4.90;;;3.17;;
24159;SDS011;62385;41.594;23.808;2023-11-19T18:02:52;5.13;;;3.27;;
24159;SDS011;62385;41.594;23.808;2023-11-19T18:05:18;7.47;;;4.80;;
24159;SDS011;62385;41.594;23.808;2023-11-19T18:07:47;17.80;;;6.50;;
24159;SDS011;62385;41.594;23.808;2023-11-19T18:10:13;11.33;;;3.20;;
24159;SDS011;62385;41.594;23.808;2023-11-19T18:12:39;9.97;;;5.17;;
24159;SDS011;62385;41.594;23.808;2023-11-19T18:15:06;11.73;;;6.03;;
24159;SDS011;62385;41.594;23.808;2023-11-19T18:17:32;6.27;;;3.70;;
24159;SDS011;62385;41.594;23.808;2023-11-19T18:19:59;4.27;;;3.40;;
24159;SDS011;62385;41.594;23.808;2023-11-19T18:22:25;4.63;;;3.13;;
24159;SDS011;62385;41.594;23.808;2023-11-19T18:24:52;7.60;;;3.93;;
24159;SDS011;62385;41.594;23.808;2023-11-19T18:27:21;5.20;;;2.77;;
24159;SDS011;62385;41.594;23.808;2023-11-19T18:29:50;5.70;;;2.17;;
24159;SDS011;62385;41.594;23.808;2023-11-19T18:32:22;3.17;;;2.73;;
24159;SDS011;62385;41.594;23.808;2023-11-19T18:34:48;5.90;;;2.23;;
24159;SDS011;62385;41.594;23.808;2023-11-19T18:37:33;2.73;;;1.73;;
24159;SDS011;62385;41.594;23.808;2023-11-19T18:39:58;4.60;;;3.10;;
24159;SDS011;62385;41.594;23.808;2023-11-19T18:42:25;5.57;;;4.50;;
24159;SDS011;62385;41.594;23.808;2023-11-19T18:44:51;9.90;;;5.47;;
24159;SDS011;62385;41.594;23.808;2023-11-19T18:47:16;5.97;;;4.13;;
24159;SDS011;62385;41.594;23.808;2023-11-19T18:49:42;9.37;;;5.10;;
24159;SDS011;62385;41.594;23.808;2023-11-19T18:52:08;3.73;;;2.50;;